Time;durP1;ratioP1;P1;durP2;ratioP2;P2;SDS_P1;SDS_P2;PMS_P1;PMS_P2;Temp;Humidity;BMP_temperature;BMP_pressure;BME280_temperature;BME280_humidity;BME280_pressure;Samples;Min_cycle;Max_cycle;Signal;HPM_P1;HPM_P2
2023/04/13 00:01:23;;;;;;;0.20;0.20;;;;;;;12.06;100.00;99463.53;5074834;28;20368;-64
2023/04/13 00:03:51;;;;;;;0.20;0.20;;;;;;;12.11;100.00;99470.72;5074943;28;20146;-63
2023/04/13 00:06:21;;;;;;;0.20;0.20;;;;;;;12.01;100.00;99469.47;5074837;28;20032;-64
2023/04/13 00:08:49;;;;;;;0.20;0.20;;;;;;;12.05;100.00;99461.94;5075057;28;20495;-63
2023/04/13 00:11:20;;;;;;;0.20;0.20;;;;;;;12.09;100.00;99455.56;5074783;28;20490;-63
2023/04/13 00:13:46;;;;;;;0.20;0.20;;;;;;;12.07;100.00;99453.16;5074743;28;20028;-64
2023/04/13 00:16:14;;;;;;;0.20;0.20;;;;;;;12.14;100.00;99455.19;5074351;28;20025;-64
2023/04/13 00:18:44;;;;;;;0.20;0.20;;;;;;;12.12;100.00;99457.56;5075552;28;20025;-63
2023/04/13 00:21:09;;;;;;;0.20;0.20;;;;;;;12.13;100.00;99454.38;5071727;28;20064;-63
2023/04/13 00:23:35;;;;;;;0.20;0.20;;;;;;;12.08;100.00;99443.59;5074622;28;20435;-63
2023/04/13 00:26:00;;;;;;;0.20;0.20;;;;;;;12.13;100.00;99431.28;5074801;28;20029;-63
2023/04/13 00:28:30;;;;;;;0.20;0.20;;;;;;;12.05;100.00;99441.63;5074478;28;20043;-64
2023/04/13 00:30:58;;;;;;;0.20;0.20;;;;;;;12.07;100.00;99428.06;5074380;28;20028;-62
2023/04/13 00:33:26;;;;;;;0.20;0.20;;;;;;;12.29;100.00;99432.53;5074412;28;20125;-64
2023/04/13 00:35:53;;;;;;;0.20;0.20;;;;;;;12.14;100.00;99436.47;5074550;28;20382;-63
2023/04/13 00:38:19;;;;;;;0.20;0.20;;;;;;;12.06;100.00;99440.41;5074265;28;20165;-63
2023/04/13 00:40:45;;;;;;;0.20;0.20;;;;;;;12.13;100.00;99445.22;5074088;28;20115;-62
2023/04/13 00:43:15;;;;;;;0.20;0.20;;;;;;;12.11;100.00;99422.53;5074190;28;20039;-64
2023/04/13 00:45:43;;;;;;;0.20;0.20;;;;;;;12.03;100.00;99422.47;5074156;28;20027;-64
2023/04/13 00:48:12;;;;;;;0.20;0.20;;;;;;;11.95;100.00;99409.69;5074612;28;20056;-64
2023/04/13 00:50:43;;;;;;;0.20;0.20;;;;;;;12.03;100.00;99397.38;5074559;28;20467;-64
2023/04/13 00:53:12;;;;;;;0.20;0.20;;;;;;;12.12;100.00;99401.81;5074261;28;20439;-64
2023/04/13 00:55:42;;;;;;;0.20;0.20;;;;;;;12.44;99.49;99404.69;5075273;28;20021;-63
2023/04/13 00:58:12;;;;;;;0.20;0.20;;;;;;;12.25;100.00;99400.25;5073881;28;20048;-63
2023/04/13 01:00:42;;;;;;;0.20;0.20;;;;;;;12.24;100.00;99418.97;5074034;28;20028;-64
2023/04/13 01:03:08;;;;;;;0.20;0.20;;;;;;;12.32;100.00;99409.47;5074744;28;20381;-65
2023/04/13 01:06:16;;;;;;;0.20;0.20;;;;;;;12.20;100.00;99409.03;5076196;28;20024;-65
2023/04/13 01:09:17;;;;;;;0.20;0.20;;;;;;;12.31;100.00;99415.44;5073817;28;20040;-64
2023/04/13 01:11:52;;;;;;;0.20;0.20;;;;;;;12.17;100.00;99407.00;5031106;28;20048;-63
2023/04/13 01:14:32;;;;;;;0.20;0.20;;;;;;;12.10;100.00;99398.63;5073539;28;20036;-63
2023/04/13 01:17:07;;;;;;;0.20;0.20;;;;;;;12.01;100.00;99405.34;5073485;28;20039;-64
2023/04/13 01:19:51;;;;;;;0.20;0.20;;;;;;;11.99;100.00;99404.94;5073680;28;20387;-64
2023/04/13 01:22:21;;;;;;;;;;;;;;;12.01;100.00;99404.53;5073813;28;20040;-65
2023/04/13 01:25:13;;;;;;;0.20;0.20;;;;;;;12.20;100.00;99403.44;5073900;28;19916;-64
2023/04/13 01:27:54;;;;;;;0.20;0.20;;;;;;;12.04;100.00;99393.41;5073044;28;20141;-63
2023/04/13 01:30:23;;;;;;;0.20;0.20;;;;;;;12.01;100.00;99405.34;5073269;28;20025;-63
2023/04/13 01:32:52;;;;;;;0.20;0.20;;;;;;;12.05;100.00;99400.59;5073742;28;20029;-64
2023/04/13 01:35:21;;;;;;;0.20;0.20;;;;;;;11.98;100.00;99389.38;5073126;28;20032;-64
2023/04/13 01:37:50;;;;;;;0.20;0.20;;;;;;;11.94;100.00;99394.16;5074662;28;20031;-64
2023/04/13 01:40:19;;;;;;;0.20;0.20;;;;;;;11.94;100.00;99394.16;5073053;28;20031;-63
2023/04/13 01:42:45;;;;;;;0.20;0.20;;;;;;;12.00;100.00;99391.81;5073267;28;20107;-64
2023/04/13 01:45:45;;;;;;;0.20;0.20;;;;;;;11.89;100.00;99397.31;5073254;28;20032;-63
2023/04/13 01:48:27;;;;;;;0.20;0.20;;;;;;;11.92;100.00;99393.75;5072793;28;20039;-63
2023/04/13 01:51:06;;;;;;;0.20;0.20;;;;;;;11.86;100.00;99391.72;5073460;28;20080;-63
2023/04/13 01:53:52;;;;;;;0.20;0.20;;;;;;;11.83;100.00;99398.91;5073129;28;20471;-63
2023/04/13 01:56:21;;;;;;;0.20;0.20;;;;;;;11.96;100.00;99389.00;5073388;28;20041;-64
2023/04/13 01:58:55;;;;;;;0.20;0.20;;;;;;;11.89;100.00;99388.97;5107217;28;20043;-63
2023/04/13 02:01:23;;;;;;;0.20;0.20;;;;;;;11.92;100.00;99379.81;5096896;28;20035;-63
2023/04/13 02:03:49;;;;;;;0.20;0.20;;;;;;;11.83;100.00;99376.59;5096247;28;20031;-64
2023/04/13 02:06:17;;;;;;;0.20;0.20;;;;;;;11.84;100.00;99377.41;5096540;28;20023;-64
2023/04/13 02:08:45;;;;;;;0.20;0.20;;;;;;;11.96;100.00;99375.06;5096208;28;20481;-64
2023/04/13 02:11:11;;;;;;;0.20;0.20;;;;;;;12.06;100.00;99376.28;5096163;28;20545;-63
2023/04/13 02:13:37;;;;;;;0.20;0.20;;;;;;;11.86;100.00;99377.78;5097026;28;20118;-63
2023/04/13 02:16:09;;;;;;;0.20;0.20;;;;;;;11.90;100.00;99376.63;5096192;28;20024;-64
2023/04/13 02:18:37;;;;;;;0.20;0.20;;;;;;;11.74;100.00;99365.75;5114415;28;20024;-64
2023/04/13 02:21:08;;;;;;;0.20;0.20;;;;;;;11.76;100.00;99365.38;5115027;28;20016;-64
2023/04/13 02:23:39;;;;;;;0.20;0.20;;;;;;;11.76;100.00;99359.78;5115661;28;20091;-65
2023/04/13 02:26:09;;;;;;;0.20;0.20;;;;;;;11.67;100.00;99360.16;5096587;28;20024;-63
2023/04/13 02:28:39;;;;;;;0.20;0.20;;;;;;;11.65;100.00;99364.50;5096486;28;20032;-63
2023/04/13 02:31:07;;;;;;;0.20;0.20;;;;;;;11.64;100.00;99349.00;5095943;28;20023;-63
2023/04/13 02:33:36;;;;;;;0.20;0.20;;;;;;;11.57;100.00;99343.38;5095971;28;20027;-63
2023/04/13 02:36:02;;;;;;;0.20;0.20;;;;;;;11.76;100.00;99348.63;5095890;28;20546;-64
2023/04/13 02:38:30;;;;;;;0.20;0.20;;;;;;;11.66;100.00;99352.97;5096214;28;20028;-63
2023/04/13 02:41:02;;;;;;;0.20;0.20;;;;;;;11.60;100.00;99339.81;5099093;28;20404;-64
2023/04/13 02:43:28;;;;;;;0.20;0.20;;;;;;;11.50;100.00;99336.59;5100244;28;20065;-64
2023/04/13 02:45:57;;;;;;;0.20;0.20;;;;;;;11.43;100.00;99335.75;5100874;28;20035;-63
2023/04/13 02:48:25;;;;;;;0.20;0.20;;;;;;;11.59;100.00;99343.78;5100371;28;20032;-63
2023/04/13 02:50:54;;;;;;;0.20;0.20;;;;;;;11.49;100.00;99329.41;5099896;28;20023;-64
2023/04/13 02:53:24;;;;;;;0.20;0.20;;;;;;;11.55;100.00;99338.97;5100485;28;20135;-63
2023/04/13 02:55:52;;;;;;;0.20;0.20;;;;;;;11.58;100.00;99331.06;5100407;28;20030;-63
2023/04/13 02:58:20;;;;;;;0.20;0.20;;;;;;;11.62;100.00;99331.88;5117949;28;20039;-64
2023/04/13 03:00:49;;;;;;;0.20;0.20;;;;;;;11.57;100.00;99323.88;5118518;28;20024;-64
2023/04/13 03:03:19;;;;;;;0.20;0.20;;;;;;;11.43;100.00;99310.66;5100269;28;20181;-64
2023/04/13 03:05:49;;;;;;;0.20;0.20;;;;;;;11.44;100.00;99309.47;5117993;28;20028;-64
2023/04/13 03:08:17;;;;;;;0.20;0.20;;;;;;;11.84;98.71;99314.09;5099647;28;20038;-63
2023/04/13 03:10:46;;;;;;;0.20;0.20;;;;;;;11.70;98.32;99305.63;5099595;28;20027;-64
2023/04/13 03:13:13;;;;;;;0.20;0.20;;;;;;;11.66;98.38;99315.94;5099798;28;20130;-63
2023/04/13 03:15:40;;;;;;;0.20;0.20;;;;;;;11.55;99.06;99302.75;5099456;28;20110;-65
2023/04/13 03:18:09;;;;;;;0.20;0.20;;;;;;;11.61;99.24;99310.75;5099834;28;20173;-64
2023/04/13 03:20:36;;;;;;;0.20;0.20;;;;;;;11.52;99.59;99306.34;5099355;28;20099;-64
2023/04/13 03:23:07;;;;;;;0.20;0.20;;;;;;;11.57;99.11;99312.75;5099365;28;20027;-64
2023/04/13 03:25:35;;;;;;;0.20;0.20;;;;;;;11.52;99.37;99303.56;5099837;28;20024;-64
2023/04/13 03:28:00;;;;;;;0.20;0.20;;;;;;;11.49;98.48;99307.13;5099977;28;20019;-65
2023/04/13 03:30:26;;;;;;;0.20;0.20;;;;;;;11.48;98.88;99305.53;5101682;28;20034;-65
2023/04/13 03:32:51;;;;;;;0.20;0.20;;;;;;;11.50;99.24;99310.69;5099492;28;20408;-64
2023/04/13 03:35:17;;;;;;;0.20;0.20;;;;;;;11.40;98.76;99301.13;5099652;28;20023;-64
2023/04/13 03:37:47;;;;;;;0.20;0.20;;;;;;;11.46;98.78;99296.78;5099014;28;20488;-63
2023/04/13 03:40:15;;;;;;;0.20;0.20;;;;;;;11.40;98.69;99289.97;5098916;28;20028;-63
2023/04/13 03:42:44;;;;;;;0.20;0.20;;;;;;;11.40;98.60;99281.63;5098972;28;20028;-63
2023/04/13 03:45:10;;;;;;;0.20;0.20;;;;;;;11.49;96.56;99282.03;5099445;28;20041;-63
2023/04/13 03:47:37;;;;;;;0.20;0.20;;;;;;;11.41;97.83;99293.56;5098950;28;20032;-63
2023/04/13 03:50:06;;;;;;;0.20;0.20;;;;;;;11.46;96.28;99279.25;5099098;28;20059;-64
2023/04/13 03:52:31;;;;;;;0.20;0.20;;;;;;;11.53;96.12;99285.66;5098681;28;20066;-64
2023/04/13 03:54:59;;;;;;;0.20;0.20;;;;;;;11.41;96.60;99294.34;5099338;28;20071;-63
2023/04/13 03:57:29;;;;;;;0.20;0.20;;;;;;;11.43;96.30;99289.19;5098652;28;20410;-63
2023/04/13 03:59:58;;;;;;;0.20;0.20;;;;;;;11.38;96.29;99292.34;5098921;28;20110;-64
2023/04/13 04:02:28;;;;;;;0.20;0.20;;;;;;;11.36;96.95;99286.38;5098842;28;20378;-64
2023/04/13 04:04:56;;;;;;;0.20;0.20;;;;;;;11.39;95.79;99285.56;5098796;28;20382;-64
2023/04/13 04:07:24;;;;;;;0.20;0.20;;;;;;;11.48;96.15;99277.66;5098521;28;20051;-64
2023/04/13 04:09:55;;;;;;;0.20;0.20;;;;;;;11.47;96.30;99275.28;5098474;28;20080;-64
2023/04/13 04:12:20;;;;;;;0.20;0.20;;;;;;;11.40;97.10;99281.63;5098651;28;20035;-64
2023/04/13 04:14:46;;;;;;;0.20;0.20;;;;;;;11.29;95.99;99286.31;5098380;28;20391;-63
2023/04/13 04:17:16;;;;;;;0.20;0.20;;;;;;;11.26;97.39;99282.34;5098353;28;20038;-64
2023/04/13 04:19:46;;;;;;;0.20;0.20;;;;;;;11.41;95.81;99285.22;5098820;28;20082;-63
2023/04/13 04:22:14;;;;;;;0.20;0.20;;;;;;;11.30;96.30;99287.13;5098141;28;20028;-64
2023/04/13 04:24:42;;;;;;;0.20;0.20;;;;;;;11.34;97.17;99290.72;5098719;28;20031;-64
2023/04/13 04:27:07;;;;;;;0.20;0.20;;;;;;;11.37;95.71;99281.59;5098099;28;20038;-63
2023/04/13 04:29:35;;;;;;;0.20;0.20;;;;;;;11.33;96.72;99278.00;5097636;28;20032;-65
2023/04/13 04:32:01;;;;;;;0.20;0.20;;;;;;;11.37;97.02;99282.41;5098424;28;20382;-63
2023/04/13 04:34:30;;;;;;;0.20;0.20;;;;;;;11.37;97.07;99278.81;5098053;28;20077;-64
2023/04/13 04:36:57;;;;;;;0.20;0.20;;;;;;;11.46;95.42;99288.41;5097962;28;20147;-64
2023/04/13 04:39:25;;;;;;;0.20;0.20;;;;;;;11.44;96.08;99289.97;5097942;28;20019;-64
2023/04/13 04:41:53;;;;;;;0.20;0.20;;;;;;;11.42;96.18;99295.94;5098046;28;20461;-64
2023/04/13 04:44:24;;;;;;;0.20;0.20;;;;;;;11.49;95.61;99290.41;5098148;28;20047;-64
2023/04/13 04:46:53;;;;;;;0.20;0.20;;;;;;;11.62;95.15;99287.28;5098054;28;20433;-64
2023/04/13 04:49:20;;;;;;;0.20;0.20;;;;;;;11.61;94.63;99288.47;5116572;28;20028;-63
2023/04/13 04:51:51;;;;;;;0.20;0.20;;;;;;;11.99;95.29;99290.63;5097566;28;20035;-63
2023/04/13 04:54:22;;;;;;;0.20;0.20;;;;;;;12.50;91.30;99292.31;5098219;28;20031;-64
2023/04/13 04:56:51;;;;;;;0.20;0.20;;;;;;;13.02;88.63;99287.13;5098330;28;20028;-64
2023/04/13 04:59:18;;;;;;;0.20;0.20;;;;;;;13.53;84.66;99291.44;5097581;28;20073;-64
2023/04/13 05:01:44;;;;;;;0.20;0.20;;;;;;;13.80;79.40;99288.94;5115698;28;20362;-63
2023/04/13 05:04:09;;;;;;;0.20;0.20;;;;;;;14.18;79.70;99291.13;5096880;28;20027;-65
2023/04/13 05:06:35;;;;;;;0.20;0.20;;;;;;;14.63;76.51;99294.84;5097351;28;20027;-65
2023/04/13 05:09:05;;;;;;;0.20;0.20;;;;;;;15.03;74.68;99296.13;5097249;28;20024;-63
2023/04/13 05:11:32;;;;;;;0.20;0.20;;;;;;;15.27;70.92;99299.06;5115831;28;20034;-63
2023/04/13 05:13:58;;;;;;;0.20;0.20;;;;;;;15.72;70.49;99297.00;5098264;28;20032;-64
2023/04/13 05:16:30;;;;;;;0.20;0.20;;;;;;;16.08;69.36;99296.53;5097295;28;20069;-65
2023/04/13 05:18:56;;;;;;;0.20;0.20;;;;;;;16.49;66.63;99294.34;5097037;28;20119;-65
2023/04/13 05:21:24;;;;;;;0.20;0.20;;;;;;;16.95;65.13;99304.06;5097250;28;20122;-66
2023/04/13 05:23:52;;;;;;;0.20;0.20;;;;;;;17.30;60.90;99299.03;5096578;28;20039;-64
2023/04/13 05:26:20;;;;;;;0.20;0.20;;;;;;;17.69;58.68;99292.66;5096998;28;20482;-65
2023/04/13 05:28:51;;;;;;;0.20;0.20;;;;;;;18.13;58.16;99284.91;5096906;28;20027;-64
2023/04/13 05:31:23;;;;;;;0.20;0.20;;;;;;;18.29;55.91;99284.16;5096647;28;20027;-63
2023/04/13 05:33:49;;;;;;;0.20;0.20;;;;;;;19.01;55.06;99286.06;5097039;28;20065;-64
2023/04/13 05:36:14;;;;;;;0.20;0.20;;;;;;;19.31;52.85;99288.50;5096545;28;20048;-64
2023/04/13 05:38:42;;;;;;;0.20;0.20;;;;;;;19.50;50.51;99294.47;5097028;28;20465;-63
2023/04/13 05:41:09;;;;;;;0.20;0.20;;;;;;;19.92;50.72;99300.13;5096645;28;20057;-64
2023/04/13 05:43:39;;;;;;;0.20;0.20;;;;;;;20.28;48.06;99300.66;5097217;28;20354;-65
2023/04/13 05:46:06;;;;;;;0.20;0.20;;;;;;;20.66;48.76;99295.03;5096703;28;20487;-64
2023/04/13 05:48:31;;;;;;;0.20;0.20;;;;;;;20.97;47.37;99282.34;5096255;28;20084;-64
2023/04/13 05:50:58;;;;;;;0.20;0.20;;;;;;;20.95;45.45;99282.00;5097179;28;20043;-65
2023/04/13 05:53:26;;;;;;;0.20;0.20;;;;;;;21.41;45.48;99292.56;5096752;28;20092;-64
2023/04/13 05:55:53;;;;;;;0.20;0.20;;;;;;;20.51;46.12;99281.84;5096150;28;20115;-64
2023/04/13 05:58:21;;;;;;;0.20;0.20;;;;;;;20.78;45.93;99268.03;5095692;28;20052;-65
2023/04/13 06:00:49;;;;;;;0.20;0.20;;;;;;;21.13;44.43;99273.69;5096305;28;20136;-63
2023/04/13 06:03:19;;;;;;;0.20;0.20;;;;;;;21.47;44.64;99260.84;5095989;28;20502;-64
2023/04/13 06:05:45;;;;;;;0.20;0.20;;;;;;;21.15;45.18;99274.06;5096310;28;20024;-64
2023/04/13 06:08:13;;;;;;;0.20;0.20;;;;;;;21.13;44.04;99270.88;5095870;28;20020;-63
2023/04/13 06:10:43;;;;;;;0.20;0.20;;;;;;;21.13;44.21;99273.69;5095357;28;20031;-63
2023/04/13 06:13:09;;;;;;;0.13;0.13;;;;;;;21.90;43.12;99268.53;5096397;28;20050;-62
2023/04/13 06:15:40;;;;;;;0.20;0.20;;;;;;;22.49;41.61;99266.66;5095287;28;20138;-64
2023/04/13 06:18:11;;;;;;;0.20;0.20;;;;;;;22.67;41.90;99265.94;5095690;28;20120;-63
2023/04/13 06:20:39;;;;;;;0.10;0.10;;;;;;;22.50;41.39;99265.41;5095692;28;20481;-62
2023/04/13 06:23:05;;;;;;;0.20;0.20;;;;;;;22.62;40.85;99264.50;5095843;28;20031;-62
2023/04/13 06:25:31;;;;;;;0.15;0.15;;;;;;;22.40;42.61;99258.91;5095666;28;20488;-62
2023/04/13 06:27:56;;;;;;;0.20;0.20;;;;;;;21.93;42.78;99251.38;5095405;28;20031;-63
2023/04/13 06:30:22;;;;;;;0.20;0.20;;;;;;;22.70;41.64;99253.66;5095846;28;20028;-62
2023/04/13 06:32:50;;;;;;;0.13;0.13;;;;;;;23.47;39.88;99254.41;5095632;28;20511;-64
2023/04/13 06:35:22;;;;;;;0.10;0.10;;;;;;;23.71;40.01;99265.16;5095430;28;20031;-63
2023/04/13 06:37:50;;;;;;;0.20;0.20;;;;;;;23.82;38.94;99267.50;5095516;28;20059;-63
2023/04/13 06:40:16;;;;;;;0.10;0.10;;;;;;;24.47;37.87;99258.34;5095406;28;20114;-62
2023/04/13 06:42:45;;;;;;;0.20;0.20;;;;;;;24.51;38.15;99263.84;5096062;28;20034;-63
2023/04/13 06:45:13;;;;;;;0.13;0.13;;;;;;;24.59;37.53;99259.38;5095887;28;20051;-64
2023/04/13 06:47:41;;;;;;;0.20;0.20;;;;;;;24.13;36.73;99258.72;5095909;28;20027;-64
2023/04/13 06:50:08;;;;;;;0.10;0.10;;;;;;;24.12;36.63;99246.59;5095330;28;20027;-63
2023/04/13 06:52:36;;;;;;;0.15;0.15;;;;;;;23.53;37.41;99246.81;5095895;28;20050;-64
2023/04/13 06:55:02;;;;;;;0.17;0.17;;;;;;;23.29;38.21;99239.44;5095345;28;20060;-63
2023/04/13 06:57:28;;;;;;;0.10;0.10;;;;;;;22.22;39.21;99227.66;5095488;28;20051;-64
2023/04/13 06:59:56;;;;;;;0.20;0.20;;;;;;;22.12;39.56;99231.72;5095040;28;20492;-62
2023/04/13 07:02:22;;;;;;;0.20;0.20;;;;;;;21.78;40.10;99224.88;5095402;28;20023;-63
2023/04/13 07:04:50;;;;;;;0.20;0.20;;;;;;;22.23;39.31;99226.41;5095592;28;20031;-62
2023/04/13 07:07:21;;;;;;;0.20;0.20;;;;;;;21.80;39.23;99228.03;5095377;28;20024;-63
2023/04/13 07:09:51;;;;;;;0.20;0.20;;;;;;;21.84;38.52;99213.72;5095663;28;20023;-65
2023/04/13 07:12:17;;;;;;;0.20;0.20;;;;;;;21.78;38.94;99207.88;5095907;28;20055;-62
2023/04/13 07:14:45;;;;;;;0.20;0.20;;;;;;;21.56;39.65;99215.59;5095336;28;20470;-63
2023/04/13 07:17:15;;;;;;;0.20;0.20;;;;;;;21.66;40.05;99212.38;5095252;28;20024;-63
2023/04/13 07:19:46;;;;;;;0.20;0.20;;;;;;;21.53;39.53;99206.00;5094910;28;20024;-62
2023/04/13 07:22:12;;;;;;;0.10;0.10;;;;;;;21.21;39.41;99204.31;5095672;28;20032;-62
2023/04/13 07:24:43;;;;;;;0.20;0.20;;;;;;;21.29;39.22;99193.53;5095396;28;20101;-63
2023/04/13 07:27:09;;;;;;;0.17;0.17;;;;;;;21.31;39.70;99199.56;5098349;28;20116;-61
2023/04/13 07:29:37;;;;;;;0.17;0.17;;;;;;;21.87;38.94;99210.78;5098892;28;20027;-61
2023/04/13 07:32:06;;;;;;;0.20;0.20;;;;;;;21.96;37.79;99208.00;5098990;28;20111;-61
2023/04/13 07:34:31;;;;;;;0.10;0.10;;;;;;;22.93;35.86;99219.06;5099073;28;20031;-62
2023/04/13 07:36:59;;;;;;;0.10;0.10;;;;;;;23.23;35.38;99222.25;5099026;28;20393;-62
2023/04/13 07:39:25;;;;;;;0.20;0.20;;;;;;;24.26;32.54;99222.38;5098679;28;20035;-63
2023/04/13 07:41:53;;;;;;;0.20;0.20;;;;;;;23.92;33.96;99221.56;5098544;28;20031;-63
2023/04/13 07:44:18;;;;;;;0.10;0.10;;;;;;;24.31;31.26;99218.88;5098830;28;20482;-64
2023/04/13 07:46:44;;;;;;;0.20;0.20;;;;;;;24.23;31.18;99214.81;5098666;28;20074;-64
2023/04/13 07:49:14;;;;;;;0.10;0.10;;;;;;;24.31;31.58;99213.22;5098532;28;20053;-62
2023/04/13 07:51:42;;;;;;;0.10;0.10;;;;;;;24.70;31.09;99201.97;5098679;28;20028;-63
2023/04/13 07:54:08;;;;;;;0.10;0.10;;;;;;;24.96;29.53;99194.53;5098788;28;20035;-62
2023/04/13 07:56:35;;;;;;;0.10;0.10;;;;;;;24.54;30.12;99197.47;5098481;28;20382;-63
2023/04/13 07:59:00;;;;;;;0.10;0.10;;;;;;;24.33;30.74;99187.13;5097987;28;20050;-63
2023/04/13 08:01:26;;;;;;;0.10;0.10;;;;;;;24.36;30.78;99192.69;5098262;28;20394;-64
2023/04/13 08:03:52;;;;;;;0.10;0.10;;;;;;;25.24;29.09;99180.88;5098523;28;20027;-63
2023/04/13 08:06:21;;;;;;;0.10;0.10;;;;;;;25.27;29.48;99167.75;5098903;28;20031;-63
2023/04/13 08:08:49;;;;;;;0.10;0.10;;;;;;;25.85;29.52;99186.19;5116243;28;20023;-64
2023/04/13 08:11:15;;;;;;;0.10;0.10;;;;;;;26.38;29.75;99168.88;5098071;28;20028;-63
2023/04/13 08:13:43;;;;;;;0.10;0.10;;;;;;;26.26;30.04;99158.59;5098189;28;20034;-64
2023/04/13 08:16:14;;;;;;;0.10;0.10;;;;;;;26.50;30.17;99147.03;5098072;28;20024;-62
2023/04/13 08:18:41;;;;;;;0.13;0.13;;;;;;;26.82;29.18;99150.84;5098171;28;20031;-63
2023/04/13 08:21:11;;;;;;;0.10;0.10;;;;;;;26.76;29.68;99138.56;5098512;28;20085;-63
2023/04/13 08:23:40;;;;;;;0.15;0.15;;;;;;;26.98;29.40;99149.47;5097841;28;20110;-63
2023/04/13 08:26:05;;;;;;;0.10;0.10;;;;;;;27.18;28.45;99156.47;5116170;28;20023;-63
2023/04/13 08:28:31;;;;;;;0.10;0.10;;;;;;;27.18;28.95;99182.19;5097830;28;20351;-62
2023/04/13 08:30:57;;;;;;;0.10;0.10;;;;;;;27.77;28.12;99187.50;5098082;28;20232;-62
2023/04/13 08:33:26;;;;;;;0.10;0.10;;;;;;;27.91;27.96;99198.81;5097722;28;20538;-63
2023/04/13 08:35:56;;;;;;;0.10;0.10;;;;;;;27.61;28.09;99195.38;5098169;28;20104;-63
2023/04/13 08:38:24;;;;;;;0.10;0.10;;;;;;;27.20;27.75;99205.28;5097214;28;20036;-62
2023/04/13 08:40:53;;;;;;;0.10;0.10;;;;;;;27.14;27.97;99217.44;5097515;28;20028;-62
2023/04/13 08:43:22;;;;;;;0.10;0.10;;;;;;;27.54;27.77;99215.00;5098341;28;20382;-63
2023/04/13 08:45:47;;;;;;;0.10;0.10;;;;;;;27.05;28.31;99231.81;5097957;28;20031;-63
2023/04/13 08:48:14;;;;;;;0.15;0.15;;;;;;;27.40;28.17;99231.75;5097762;28;20034;-62
2023/04/13 08:50:44;;;;;;;0.10;0.10;;;;;;;27.22;28.44;99228.41;5097582;28;20043;-62
2023/04/13 08:53:09;;;;;;;0.10;0.10;;;;;;;27.63;27.96;99238.50;5097226;28;20034;-62
2023/04/13 08:55:43;;;;;;;0.20;0.20;;;;;;;27.34;28.26;99238.69;5115322;28;20024;-62
2023/04/13 08:58:15;;;;;;;0.10;0.10;;;;;;;27.17;27.90;99232.78;5096994;28;20047;-62
2023/04/13 09:00:41;;;;;;;0.10;0.10;;;;;;;27.24;27.99;99225.84;5096851;28;20020;-63
2023/04/13 09:03:10;;;;;;;0.10;0.10;;;;;;;26.95;28.83;99232.44;5097401;28;20519;-62
2023/04/13 09:05:40;;;;;;;0.10;0.10;;;;;;;26.98;30.58;99235.09;5097038;28;20027;-61
2023/04/13 09:08:12;;;;;;;0.10;0.10;;;;;;;25.57;33.17;99223.47;5096976;28;20027;-62
2023/04/13 09:10:39;;;;;;;0.20;0.20;;;;;;;24.47;35.05;99224.22;5097026;28;20118;-62
2023/04/13 09:13:09;;;;;;;0.10;0.10;;;;;;;24.09;35.25;99233.34;5096952;28;20035;-62
2023/04/13 09:15:35;;;;;;;0.15;0.15;;;;;;;23.86;35.93;99217.75;5096790;28;20089;-62
2023/04/13 09:18:11;;;;;;;0.20;0.20;;;;;;;23.78;36.09;99222.22;5096690;28;20024;-61
2023/04/13 09:20:37;;;;;;;0.10;0.10;;;;;;;24.17;35.68;99220.34;5097134;28;20405;-61
2023/04/13 09:23:15;;;;;;;0.15;0.15;;;;;;;24.50;35.30;99213.91;5097002;28;20034;-61
2023/04/13 09:25:44;;;;;;;0.17;0.17;;;;;;;25.31;34.03;99217.53;5096680;28;20050;-62
2023/04/13 09:28:19;;;;;;;0.20;0.20;;;;;;;25.71;33.31;99218.25;5097231;28;20031;-63
2023/04/13 09:30:47;;;;;;;0.10;0.10;;;;;;;25.89;32.75;99212.41;5097114;28;20024;-63
2023/04/13 09:33:15;;;;;;;0.10;0.10;;;;;;;26.04;32.30;99204.63;5096616;28;20478;-61
2023/04/13 09:35:41;;;;;;;0.10;0.10;;;;;;;25.58;32.99;99202.25;5096409;28;20020;-62
2023/04/13 09:38:10;;;;;;;0.20;0.20;;;;;;;25.20;32.93;99208.75;5096796;28;20081;-64
2023/04/13 09:40:46;;;;;;;0.20;0.20;;;;;;;25.60;31.98;99213.94;5115225;28;20020;-62
2023/04/13 09:43:12;;;;;;;0.10;0.10;;;;;;;26.09;31.33;99215.31;5096863;28;20126;-64
2023/04/13 09:45:43;;;;;;;0.20;0.20;;;;;;;26.66;30.85;99219.09;5096306;28;20492;-64
2023/04/13 09:48:20;;;;;;;0.10;0.10;;;;;;;25.89;32.07;99212.41;5096753;28;20386;-63
2023/04/13 09:50:56;;;;;;;0.10;0.10;;;;;;;24.53;33.10;99207.28;5095921;28;20023;-63
2023/04/13 09:53:21;;;;;;;0.10;0.10;;;;;;;25.18;33.15;99205.59;5096243;28;20024;-62
2023/04/13 09:55:57;;;;;;;0.10;0.10;;;;;;;24.39;35.81;99205.91;5096112;28;20028;-62
2023/04/13 09:58:22;;;;;;;0.15;0.15;;;;;;;25.25;35.58;99199.56;5079272;28;20079;-63
2023/04/13 10:00:50;;;;;;;0.15;0.15;;;;;;;25.61;34.89;99204.09;5072399;28;20158;-64
2023/04/13 10:03:21;;;;;;;0.10;0.10;;;;;;;25.15;35.62;99205.81;5072510;28;20025;-62
2023/04/13 10:05:51;;;;;;;0.10;0.10;;;;;;;24.74;37.39;99197.69;5072439;28;20165;-62
2023/04/13 10:08:21;;;;;;;0.10;0.10;;;;;;;25.24;37.02;99209.34;5072474;28;20029;-63
2023/04/13 10:10:49;;;;;;;0.10;0.10;;;;;;;25.08;37.98;99213.41;5072297;28;20028;-62
2023/04/13 10:13:21;;;;;;;0.10;0.10;;;;;;;24.87;38.88;99203.13;5072824;28;20388;-62
2023/04/13 10:15:52;;;;;;;0.10;0.10;;;;;;;24.83;39.05;99199.69;5072297;28;20115;-64
2023/04/13 10:18:29;;;;;;;0.15;0.15;;;;;;;24.73;39.44;99175.41;5072359;28;20504;-62
2023/04/13 10:20:58;;;;;;;0.10;0.10;;;;;;;24.36;40.65;99183.38;5072732;28;20123;-63
2023/04/13 10:23:26;;;;;;;0.10;0.10;;;;;;;24.07;40.81;99181.88;5073366;28;20336;-62
2023/04/13 10:25:53;;;;;;;0.10;0.10;;;;;;;24.93;39.61;99167.06;5072310;28;20108;-65
2023/04/13 10:28:19;;;;;;;0.10;0.10;;;;;;;23.66;40.95;99174.94;5072220;28;20021;-66
2023/04/13 10:30:51;;;;;;;0.10;0.10;;;;;;;23.99;40.62;99155.88;5072849;28;20082;-65
2023/04/13 10:33:19;;;;;;;0.10;0.10;;;;;;;24.87;39.20;99151.91;5072221;28;20090;-62
2023/04/13 10:36:01;;;;;;;0.10;0.10;;;;;;;24.31;39.21;99131.56;5072158;28;20035;-63
2023/04/13 10:38:29;;;;;;;0.10;0.10;;;;;;;24.89;38.88;99132.31;5073430;28;20032;-63
2023/04/13 10:40:58;;;;;;;0.10;0.10;;;;;;;24.72;39.10;99125.50;5072100;28;20052;-62
2023/04/13 10:43:33;;;;;;;0.10;0.10;;;;;;;25.05;38.46;99111.94;5073384;28;20032;-63
2023/04/13 10:46:12;;;;;;;0.10;0.10;;;;;;;25.52;36.54;99106.59;5072027;28;20039;-63
2023/04/13 10:48:41;;;;;;;0.10;0.10;;;;;;;25.23;34.90;99105.31;5071925;28;20036;-62
2023/04/13 10:51:11;;;;;;;0.10;0.10;;;;;;;25.79;35.34;99102.69;5071840;28;20047;-63
2023/04/13 10:53:37;;;;;;;0.13;0.13;;;;;;;26.11;34.72;99106.53;5071777;28;20028;-63
2023/04/13 10:56:03;;;;;;;0.10;0.10;;;;;;;24.15;37.32;99097.09;5072219;28;20031;-62
2023/04/13 10:58:31;;;;;;;0.10;0.10;;;;;;;23.82;38.22;99103.56;5071572;28;20045;-63
2023/04/13 11:00:59;;;;;;;0.10;0.10;;;;;;;22.41;41.20;99098.94;5072906;28;20028;-61
2023/04/13 11:03:28;;;;;;;0.10;0.10;;;;;;;22.67;40.87;99095.81;5076739;28;20028;-62
2023/04/13 11:05:59;;;;;;;0.20;0.20;;;;;;;22.05;41.70;99095.97;5076524;28;20052;-62
2023/04/13 11:08:26;;;;;;;0.10;0.10;;;;;;;21.54;42.87;99079.44;5076236;28;20032;-61
2023/04/13 11:10:56;;;;;;;0.20;0.20;;;;;;;21.03;44.76;99079.72;5076034;28;20024;-64
2023/04/13 11:13:25;;;;;;;0.20;0.20;;;;;;;21.25;44.06;99088.19;5075770;28;20035;-64
2023/04/13 11:16:00;;;;;;;0.17;0.17;;;;;;;21.33;43.13;99081.06;5076246;28;20071;-62
2023/04/13 11:18:26;;;;;;;0.20;0.20;;;;;;;22.22;42.90;99069.00;5076925;28;20025;-62
2023/04/13 11:20:52;;;;;;;0.20;0.20;;;;;;;22.40;42.20;99071.84;5076010;28;20020;-63
2023/04/13 11:23:22;;;;;;;0.20;0.20;;;;;;;22.15;42.27;99089.13;5075526;28;20035;-64
2023/04/13 11:25:58;;;;;;;0.20;0.20;;;;;;;21.62;43.24;99089.22;5075413;28;20024;-63
2023/04/13 11:28:35;;;;;;;0.20;0.20;;;;;;;21.35;43.97;99082.16;5076220;28;20028;-63
2023/04/13 11:31:00;;;;;;;0.20;0.20;;;;;;;21.26;44.09;99084.94;5075296;28;20081;-62
2023/04/13 11:33:28;;;;;;;0.15;0.15;;;;;;;21.11;44.54;99081.06;5075871;28;20123;-63
2023/04/13 11:35:57;;;;;;;0.20;0.20;;;;;;;20.75;45.61;99075.94;5075234;28;20558;-62
2023/04/13 11:38:23;;;;;;;0.20;0.20;;;;;;;20.58;46.17;99075.31;5075484;28;20137;-61
2023/04/13 11:40:50;;;;;;;0.10;0.10;;;;;;;20.71;46.31;99059.09;5075040;28;20027;-65